createdAt,value
2022-11-05T00:01:58.840Z,8.93
2022-11-05T00:04:44.315Z,9.27
2022-11-05T00:07:37.111Z,8.88
2022-11-05T00:10:07.778Z,9.05
2022-11-05T00:12:52.973Z,8.38
2022-11-05T00:15:37.942Z,9.95
2022-11-05T00:18:04.556Z,8.10
2022-11-05T00:20:31.186Z,7.00
2022-11-05T00:23:24.490Z,7.47
2022-11-05T00:26:08.424Z,7.53
2022-11-05T00:28:35.796Z,7.68
2022-11-05T00:31:09.772Z,8.02
2022-11-05T00:33:37.491Z,6.50
2022-11-05T00:36:05.231Z,6.60
2022-11-05T00:38:32.451Z,6.72
2022-11-05T00:40:59.115Z,5.80
2022-11-05T00:43:44.138Z,5.50
2022-11-05T00:46:10.837Z,5.60
2022-11-05T00:48:56.080Z,5.35
2022-11-05T00:51:22.718Z,5.25
2022-11-05T00:53:49.330Z,5.85
2022-11-05T00:56:15.940Z,5.68
2022-11-05T00:58:42.500Z,5.20
2022-11-05T01:01:10.229Z,5.35
2022-11-05T01:03:38.977Z,5.18
2022-11-05T01:06:12.934Z,5.97
2022-11-05T01:08:40.443Z,4.90
2022-11-05T01:11:32.994Z,5.70
2022-11-05T01:14:05.847Z,5.47
2022-11-05T01:16:33.358Z,6.95
2022-11-05T01:19:01.803Z,6.22
2022-11-05T01:21:28.391Z,6.55
2022-11-05T01:23:55.056Z,6.82
2022-11-05T01:26:21.692Z,7.32
2022-11-05T01:28:52.627Z,7.20
2022-11-05T01:31:20.358Z,6.55
2022-11-05T01:33:47.033Z,6.93
2022-11-05T01:36:14.163Z,6.75
2022-11-05T01:38:40.883Z,6.55
2022-11-05T01:41:08.342Z,6.72
2022-11-05T01:43:57.246Z,7.35
2022-11-05T01:46:29.327Z,7.13
2022-11-05T01:49:03.368Z,7.82
2022-11-05T01:51:31.140Z,8.13
2022-11-05T01:54:05.082Z,8.38
2022-11-05T01:56:43.165Z,8.50
2022-11-05T01:59:16.218Z,9.80
2022-11-05T02:01:42.979Z,8.50
2022-11-05T02:04:13.908Z,9.07
2022-11-05T02:06:46.538Z,7.68
2022-11-05T02:09:21.555Z,8.38
2022-11-05T02:11:49.905Z,8.73
2022-11-05T02:14:16.531Z,8.93
2022-11-05T02:16:58.104Z,8.85
2022-11-05T02:19:46.289Z,8.90
2022-11-05T02:22:34.733Z,8.52
2022-11-05T02:25:21.553Z,8.27
2022-11-05T02:28:08.875Z,9.07
2022-11-05T02:30:49.867Z,9.55
2022-11-05T02:33:25.770Z,9.57
2022-11-05T02:36:04.504Z,10.15
2022-11-05T02:38:40.520Z,10.52
2022-11-05T02:41:43.267Z,9.52
2022-11-05T02:44:17.384Z,9.40
2022-11-05T02:47:02.141Z,10.15
2022-11-05T02:49:53.709Z,9.18
2022-11-05T02:52:28.189Z,10.38
2022-11-05T02:55:16.275Z,9.88
2022-11-05T02:57:47.719Z,11.10
2022-11-05T03:00:39.813Z,10.88
2022-11-05T03:03:13.652Z,11.25
2022-11-05T03:06:01.103Z,11.75
2022-11-05T03:08:39.126Z,11.57
2022-11-05T03:11:22.428Z,11.75
2022-11-05T03:14:07.874Z,10.38
2022-11-05T03:16:42.994Z,12.27
2022-11-05T03:19:18.813Z,10.50
2022-11-05T03:22:11.605Z,11.50
2022-11-05T03:24:46.144Z,10.75
2022-11-05T03:27:19.542Z,12.45
2022-11-05T03:29:54.506Z,11.70
2022-11-05T03:32:22.462Z,12.93
2022-11-05T03:34:58.996Z,10.82
2022-11-05T03:37:30.424Z,11.05
2022-11-05T03:40:01.295Z,12.63
2022-11-05T03:42:32.611Z,11.38
2022-11-05T03:45:05.582Z,12.60
2022-11-05T03:47:38.170Z,11.60
2022-11-05T03:50:20.245Z,12.88
2022-11-05T03:52:59.172Z,13.90
2022-11-05T03:55:35.727Z,13.55
2022-11-05T03:58:04.143Z,14.30
2022-11-05T04:00:31.119Z,13.60
2022-11-05T04:02:57.831Z,14.95
2022-11-05T04:05:24.447Z,15.07
2022-11-05T04:08:14.096Z,18.05
2022-11-05T04:10:59.792Z,15.60
2022-11-05T04:13:27.811Z,15.70
2022-11-05T04:16:14.962Z,15.77
2022-11-05T04:18:42.220Z,14.75
2022-11-05T04:21:28.734Z,16.83
2022-11-05T04:24:10.786Z,16.50
2022-11-05T04:26:39.972Z,16.95
2022-11-05T04:29:25.645Z,15.70
2022-11-05T04:31:52.553Z,15.73
2022-11-05T04:34:19.399Z,16.75
2022-11-05T04:36:46.564Z,15.18
2022-11-05T04:39:13.118Z,15.45
2022-11-05T04:41:39.693Z,15.68
2022-11-05T04:44:06.283Z,14.15
2022-11-05T04:46:32.868Z,14.50
2022-11-05T04:48:59.510Z,14.85
2022-11-05T04:51:27.146Z,15.27
2022-11-05T04:53:54.099Z,13.00
2022-11-05T04:56:25.311Z,13.35
2022-11-05T04:58:52.640Z,13.88
2022-11-05T05:01:21.844Z,13.63
2022-11-05T05:03:50.474Z,14.85
2022-11-05T05:06:17.910Z,14.45
2022-11-05T05:08:44.777Z,13.48
2022-11-05T05:11:13.881Z,17.83
2022-11-05T05:13:40.527Z,14.95
2022-11-05T05:16:09.007Z,15.70
2022-11-05T05:18:35.854Z,17.33
2022-11-05T05:21:21.664Z,13.80
2022-11-05T05:23:48.387Z,17.73
2022-11-05T05:26:16.156Z,16.17
2022-11-05T05:28:42.858Z,15.63
2022-11-05T05:31:09.659Z,16.17
2022-11-05T05:33:36.269Z,13.77
2022-11-05T05:36:07.103Z,14.63
2022-11-05T05:38:37.711Z,12.88
2022-11-05T05:41:04.380Z,14.98
2022-11-05T05:43:32.771Z,14.95
2022-11-05T05:46:03.783Z,14.52
2022-11-05T05:48:30.422Z,16.77
2022-11-05T05:51:02.087Z,15.60
2022-11-05T05:53:29.426Z,14.55
2022-11-05T05:55:56.505Z,15.88
2022-11-05T05:58:24.568Z,17.90
2022-11-05T06:00:51.202Z,15.02
2022-11-05T06:03:17.789Z,14.88
2022-11-05T06:05:44.753Z,15.45
2022-11-05T06:08:11.567Z,16.27
2022-11-05T06:10:38.369Z,16.05
2022-11-05T06:13:05.299Z,16.88
2022-11-05T06:15:35.905Z,15.60
2022-11-05T06:18:02.972Z,15.88
2022-11-05T06:20:29.562Z,16.23
2022-11-05T06:22:58.882Z,19.15
2022-11-05T06:25:26.109Z,16.83
2022-11-05T06:27:53.678Z,16.35
2022-11-05T06:30:21.655Z,20.63
2022-11-05T06:32:48.255Z,20.17
2022-11-05T06:35:14.905Z,19.60
2022-11-05T06:37:41.566Z,19.00
2022-11-05T06:40:08.858Z,21.50
2022-11-05T06:42:35.478Z,20.65
2022-11-05T06:45:02.632Z,20.77
2022-11-05T06:47:29.389Z,21.58
2022-11-05T06:49:57.266Z,19.95
2022-11-05T06:52:23.983Z,19.45
2022-11-05T06:54:50.627Z,18.60
2022-11-05T06:57:17.225Z,17.83
2022-11-05T06:59:43.820Z,17.38
2022-11-05T07:02:13.477Z,18.67
2022-11-05T07:04:40.197Z,16.48
2022-11-05T07:07:06.834Z,15.55
2022-11-05T07:09:33.495Z,14.73
2022-11-05T07:12:00.109Z,14.38
2022-11-05T07:14:26.714Z,14.43
2022-11-05T07:16:53.364Z,12.05
2022-11-05T07:19:20.858Z,10.18
2022-11-05T07:21:48.634Z,12.05
2022-11-05T07:24:15.478Z,10.77
2022-11-05T07:26:42.191Z,10.07
2022-11-05T07:29:08.795Z,8.93
2022-11-05T07:31:35.413Z,8.55
2022-11-05T07:34:02.244Z,9.32
2022-11-05T07:36:28.823Z,8.40
2022-11-05T07:39:00.044Z,10.80
2022-11-05T07:41:27.231Z,9.38
2022-11-05T07:43:54.160Z,9.85
2022-11-05T07:46:20.752Z,8.20
2022-11-05T07:48:47.338Z,8.77
2022-11-05T07:51:13.976Z,8.75
2022-11-05T07:53:45.073Z,10.02
2022-11-05T07:56:12.867Z,11.65
2022-11-05T07:58:39.544Z,9.93
2022-11-05T08:01:07.157Z,9.82
2022-11-05T08:03:34.070Z,11.57
2022-11-05T08:06:00.891Z,9.82
2022-11-05T08:08:27.483Z,9.63
2022-11-05T08:10:54.100Z,8.98
2022-11-05T08:13:20.770Z,10.40
2022-11-05T08:15:47.415Z,8.23
2022-11-05T08:18:16.402Z,7.53
2022-11-05T08:20:44.628Z,10.20
2022-11-05T08:23:11.550Z,6.85
2022-11-05T08:25:39.672Z,8.00
2022-11-05T08:28:12.779Z,8.48
2022-11-05T08:30:39.488Z,6.45
2022-11-05T08:33:12.070Z,7.22
2022-11-05T08:35:39.621Z,6.53
2022-11-05T08:38:07.392Z,7.70
2022-11-05T08:40:35.933Z,7.72
2022-11-05T08:43:04.385Z,6.57
2022-11-05T08:45:31.546Z,7.63
2022-11-05T08:48:02.853Z,8.63
2022-11-05T08:50:30.204Z,9.45
2022-11-05T08:52:56.917Z,9.00
2022-11-05T08:55:24.341Z,8.27
2022-11-05T08:58:01.575Z,7.90
2022-11-05T09:00:30.198Z,7.78
2022-11-05T09:03:01.064Z,8.27
2022-11-05T09:05:29.011Z,10.05
2022-11-05T09:08:00.773Z,9.80
2022-11-05T09:10:28.647Z,9.90
2022-11-05T09:12:55.508Z,7.85
2022-11-05T09:15:23.143Z,9.93
2022-11-05T09:17:50.183Z,9.85
2022-11-05T09:20:16.817Z,9.27
2022-11-05T09:22:43.744Z,7.63
2022-11-05T09:25:10.699Z,8.27
2022-11-05T09:27:37.315Z,7.93
2022-11-05T09:30:05.517Z,9.18
2022-11-05T09:32:32.993Z,7.03
2022-11-05T09:35:02.284Z,7.30
2022-11-05T09:37:29.331Z,11.63
2022-11-05T09:39:56.165Z,9.77
2022-11-05T09:42:28.421Z,8.13
2022-11-05T09:45:02.041Z,9.40
2022-11-05T09:47:44.389Z,7.82
2022-11-05T09:50:35.531Z,9.20
2022-11-05T09:53:04.150Z,8.98
2022-11-05T09:55:37.761Z,7.93
2022-11-05T09:58:17.022Z,8.40
2022-11-05T10:00:48.600Z,8.88
2022-11-05T10:03:20.449Z,8.52
2022-11-05T10:05:49.820Z,8.43
2022-11-05T10:08:31.554Z,8.88
2022-11-05T10:11:12.794Z,9.38
2022-11-05T10:13:47.060Z,8.50
2022-11-05T10:16:29.166Z,11.77
2022-11-05T10:19:14.563Z,9.23
2022-11-05T10:22:05.650Z,9.55
2022-11-05T10:24:28.454Z,10.27
2022-11-05T10:26:56.463Z,11.32
2022-11-05T10:29:29.523Z,8.45
2022-11-05T10:31:58.241Z,10.35
2022-11-05T10:34:33.746Z,10.38
2022-11-05T10:37:00.798Z,15.02
2022-11-05T10:39:35.207Z,12.20
2022-11-05T10:42:46.781Z,9.45
2022-11-05T10:45:38.965Z,11.93
2022-11-05T10:48:43.981Z,11.02
2022-11-05T10:51:11.563Z,9.50
2022-11-05T10:53:39.747Z,9.50
2022-11-05T10:56:31.024Z,9.57
2022-11-05T10:58:59.795Z,12.50
2022-11-05T11:01:27.348Z,9.57
2022-11-05T11:04:22.140Z,9.93
2022-11-05T11:06:54.817Z,9.70
2022-11-05T11:09:31.468Z,10.77
2022-11-05T11:12:06.196Z,10.88
2022-11-05T11:14:34.982Z,11.43
2022-11-05T11:17:37.029Z,10.85
2022-11-05T11:20:26.121Z,11.70
2022-11-05T11:22:58.938Z,9.57
2022-11-05T11:25:28.237Z,9.75
2022-11-05T11:27:55.372Z,9.95
2022-11-05T11:30:22.077Z,11.45
2022-11-05T11:32:49.502Z,10.30
2022-11-05T11:35:22.493Z,12.43
2022-11-05T11:37:52.195Z,11.70
2022-11-05T11:40:29.099Z,11.35
2022-11-05T11:42:59.376Z,11.13
2022-11-05T11:45:36.704Z,11.63
2022-11-05T11:48:08.180Z,11.43
2022-11-05T11:50:36.553Z,10.35
2022-11-05T11:53:21.368Z,9.95
2022-11-05T11:55:59.980Z,10.30
2022-11-05T11:58:40.665Z,11.82
2022-11-05T12:01:26.097Z,10.60
2022-11-05T12:04:20.043Z,11.70
2022-11-05T12:07:19.863Z,13.10
2022-11-05T12:10:03.200Z,10.15
2022-11-05T12:12:49.062Z,8.63
2022-11-05T12:15:38.206Z,7.50
2022-11-05T12:18:12.232Z,9.77
2022-11-05T12:21:03.239Z,8.05
2022-11-05T12:23:35.705Z,7.32
2022-11-05T12:26:20.680Z,6.57
2022-11-05T12:29:17.899Z,6.20
2022-11-05T12:32:12.169Z,7.60
2022-11-05T12:35:07.750Z,5.07
2022-11-05T12:37:46.647Z,5.88
2022-11-05T12:40:48.827Z,6.70
2022-11-05T12:43:24.419Z,6.43
2022-11-05T12:46:36.211Z,5.75
2022-11-05T12:49:17.028Z,5.30
2022-11-05T12:52:01.724Z,4.63
2022-11-05T12:54:52.817Z,3.80
2022-11-05T12:57:22.534Z,4.40
2022-11-05T13:00:02.240Z,5.88
2022-11-05T13:02:51.068Z,5.78
2022-11-05T13:05:39.110Z,4.70
2022-11-05T13:08:13.091Z,5.03
2022-11-05T13:10:45.618Z,4.78
2022-11-05T13:13:18.322Z,7.55
2022-11-05T13:15:53.714Z,7.18
2022-11-05T13:18:27.968Z,5.32
2022-11-05T13:20:57.476Z,6.15
2022-11-05T13:23:37.662Z,4.18
2022-11-05T13:26:19.666Z,3.20
2022-11-05T13:28:52.678Z,3.95
2022-11-05T13:31:26.148Z,4.25
2022-11-05T13:33:54.240Z,5.00
2022-11-05T13:36:49.004Z,3.95
2022-11-05T13:39:25.921Z,5.72
2022-11-05T13:42:04.738Z,5.28
2022-11-05T13:45:03.724Z,6.82
2022-11-05T13:47:50.039Z,4.07
2022-11-05T13:50:41.317Z,4.22
2022-11-05T13:53:23.673Z,3.72
2022-11-05T13:56:11.685Z,3.47
2022-11-05T13:59:00.131Z,5.75
2022-11-05T14:01:44.446Z,4.05
2022-11-05T14:04:21.406Z,4.90
2022-11-05T14:06:48.100Z,3.70
2022-11-05T14:09:21.861Z,4.57
2022-11-05T14:11:53.315Z,2.80
2022-11-05T14:14:23.969Z,5.63
2022-11-05T14:17:08.787Z,2.92
2022-11-05T14:20:05.081Z,2.92
2022-11-05T14:22:31.804Z,4.30
2022-11-05T14:24:59.581Z,3.00
2022-11-05T14:27:29.236Z,3.97
2022-11-05T14:29:55.899Z,4.20
2022-11-05T14:32:25.154Z,3.78
2022-11-05T14:35:24.708Z,3.58
2022-11-05T14:37:56.580Z,4.10
2022-11-05T14:40:36.232Z,3.92
2022-11-05T14:43:07.334Z,3.35
2022-11-05T14:45:40.211Z,3.08
2022-11-05T14:48:25.532Z,2.13
2022-11-05T14:50:52.299Z,2.88
2022-11-05T14:53:34.119Z,2.90
2022-11-05T14:56:03.450Z,6.72
2022-11-05T14:58:33.661Z,3.63
2022-11-05T15:01:02.901Z,4.30
2022-11-05T15:03:46.505Z,4.68
2022-11-05T15:06:29.821Z,4.40
2022-11-05T15:09:18.427Z,4.30
2022-11-05T15:11:52.674Z,7.10
2022-11-05T15:14:42.280Z,3.10
2022-11-05T15:17:21.876Z,4.25
2022-11-05T15:19:51.064Z,3.22
2022-11-05T15:22:29.654Z,3.42
2022-11-05T15:24:56.778Z,4.72
2022-11-05T15:27:41.085Z,3.88
2022-11-05T15:30:14.995Z,7.18
2022-11-05T15:32:41.755Z,4.30
2022-11-05T15:35:27.400Z,3.60
2022-11-05T15:38:01.750Z,3.90
2022-11-05T15:40:33.107Z,6.32
2022-11-05T15:43:09.092Z,6.88
2022-11-05T15:45:36.248Z,6.43
2022-11-05T15:48:13.230Z,3.65
2022-11-05T15:50:41.019Z,6.28
2022-11-05T15:53:47.418Z,6.80
2022-11-05T15:56:28.668Z,3.33
2022-11-05T15:59:21.511Z,5.05
2022-11-05T16:01:53.332Z,5.40
2022-11-05T16:04:27.430Z,5.15
2022-11-05T16:06:58.951Z,5.55
2022-11-05T16:09:29.147Z,5.60
2022-11-05T16:12:14.570Z,4.53
2022-11-05T16:14:41.859Z,4.55
2022-11-05T16:17:23.924Z,5.45
2022-11-05T16:19:51.814Z,7.32
2022-11-05T16:22:18.974Z,4.10
2022-11-05T16:24:46.159Z,5.20
2022-11-05T16:27:19.798Z,4.25
2022-11-05T16:29:55.800Z,5.97
2022-11-05T16:32:29.719Z,7.88
2022-11-05T16:35:02.840Z,8.35
2022-11-05T16:37:36.528Z,7.30
2022-11-05T16:40:09.631Z,8.73
2022-11-05T16:42:38.631Z,6.45
2022-11-05T16:45:06.753Z,8.35
2022-11-05T16:47:33.444Z,10.68
2022-11-05T16:50:00.157Z,10.75
2022-11-05T16:52:27.012Z,10.60
2022-11-05T16:54:53.683Z,9.15
2022-11-05T16:57:30.565Z,10.40
2022-11-05T16:59:59.082Z,12.70
2022-11-05T17:02:26.629Z,14.63
2022-11-05T17:04:53.405Z,15.30
2022-11-05T17:07:20.086Z,11.77
2022-11-05T17:09:46.702Z,10.90
2022-11-05T17:12:14.328Z,10.68
2022-11-05T17:14:40.963Z,9.60
2022-11-05T17:17:07.699Z,10.77
2022-11-05T17:19:34.373Z,13.98
2022-11-05T17:22:01.022Z,13.43
2022-11-05T17:24:27.763Z,11.18
2022-11-05T17:26:54.625Z,10.82
2022-11-05T17:29:21.399Z,15.15
2022-11-05T17:31:48.867Z,19.42
2022-11-05T17:34:15.556Z,17.83
2022-11-05T17:36:42.201Z,15.43
2022-11-05T17:39:10.825Z,17.33
2022-11-05T17:41:37.445Z,15.45
2022-11-05T17:44:04.217Z,15.80
2022-11-05T17:46:30.901Z,15.90
2022-11-05T17:48:57.565Z,17.85
2022-11-05T17:51:24.184Z,21.45
2022-11-05T17:53:51.034Z,19.98
2022-11-05T17:56:30.520Z,20.63
2022-11-05T17:59:00.686Z,20.63
2022-11-05T18:01:30.399Z,21.98
2022-11-05T18:03:57.181Z,25.23
2022-11-05T18:06:23.848Z,15.43
2022-11-05T18:08:50.597Z,18.00
2022-11-05T18:11:17.699Z,14.35
2022-11-05T18:13:44.384Z,14.15
2022-11-05T18:16:11.014Z,13.80
2022-11-05T18:18:37.697Z,15.80
2022-11-05T18:21:04.536Z,15.05
2022-11-05T18:23:31.171Z,14.80
2022-11-05T18:25:58.207Z,20.42
2022-11-05T18:28:25.274Z,20.88
2022-11-05T18:30:52.036Z,23.15
2022-11-05T18:33:18.695Z,31.85
2022-11-05T18:35:45.931Z,39.47
2022-11-05T18:38:12.678Z,38.35
2022-11-05T18:40:39.650Z,41.97
2022-11-05T18:43:06.399Z,38.67
2022-11-05T18:45:33.434Z,25.02
2022-11-05T18:48:04.002Z,25.98
2022-11-05T18:50:30.925Z,23.05
2022-11-05T18:52:57.886Z,31.65
2022-11-05T18:55:24.800Z,29.55
2022-11-05T18:57:52.178Z,32.40
2022-11-05T19:00:20.196Z,28.65
2022-11-05T19:02:47.053Z,28.08
2022-11-05T19:05:28.580Z,32.28
2022-11-05T19:07:55.600Z,30.05
2022-11-05T19:10:22.286Z,23.38
2022-11-05T19:12:48.944Z,18.85
2022-11-05T19:15:15.805Z,19.85
2022-11-05T19:17:42.539Z,19.30
2022-11-05T19:20:09.549Z,30.30
2022-11-05T19:22:36.280Z,91.60
2022-11-05T19:25:03.253Z,17.33
2022-11-05T19:27:29.947Z,29.42
2022-11-05T19:29:56.642Z,39.95
2022-11-05T19:32:23.941Z,31.92
2022-11-05T19:34:50.635Z,13.25
2022-11-05T19:37:17.484Z,12.02
2022-11-05T19:39:44.215Z,13.15
2022-11-05T19:42:11.109Z,13.93
2022-11-05T19:44:38.204Z,24.50
2022-11-05T19:47:04.898Z,15.80
2022-11-05T19:49:31.661Z,15.20
2022-11-05T19:51:58.362Z,16.73
2022-11-05T19:54:25.056Z,16.23
2022-11-05T19:56:51.929Z,14.88
2022-11-05T19:59:18.993Z,14.88
2022-11-05T20:01:45.876Z,13.65
2022-11-05T20:04:12.786Z,16.17
2022-11-05T20:06:40.656Z,19.33
2022-11-05T20:09:27.412Z,18.88
2022-11-05T20:11:56.268Z,26.77
2022-11-05T20:14:24.750Z,30.08
2022-11-05T20:16:52.079Z,40.47
2022-11-05T20:19:20.577Z,69.72
2022-11-05T20:21:47.302Z,37.78
2022-11-05T20:24:23.272Z,22.67
2022-11-05T20:26:52.878Z,14.80
2022-11-05T20:29:20.071Z,15.18
2022-11-05T20:31:46.962Z,15.43
2022-11-05T20:34:13.659Z,22.77
2022-11-05T20:36:41.247Z,25.55
2022-11-05T20:39:08.035Z,27.40
2022-11-05T20:41:34.741Z,23.27
2022-11-05T20:44:01.889Z,21.73
2022-11-05T20:46:28.610Z,23.63
2022-11-05T20:48:55.709Z,24.73
2022-11-05T20:51:24.271Z,24.83
2022-11-05T20:53:59.185Z,24.48
2022-11-05T20:56:29.612Z,28.85
2022-11-05T20:58:58.382Z,30.73
2022-11-05T21:01:27.483Z,16.90
2022-11-05T21:03:54.308Z,14.30
2022-11-05T21:06:20.998Z,23.25
2022-11-05T21:08:49.902Z,19.20
2022-11-05T21:11:18.130Z,17.90
2022-11-05T21:13:44.909Z,14.93
2022-11-05T21:16:17.810Z,17.85
2022-11-05T21:18:44.996Z,18.45
2022-11-05T21:21:15.428Z,14.23
2022-11-05T21:23:42.294Z,14.80
2022-11-05T21:26:13.400Z,15.35
2022-11-05T21:28:41.161Z,14.20
2022-11-05T21:31:08.725Z,12.98
2022-11-05T21:33:35.599Z,12.75
2022-11-05T21:36:07.740Z,11.55
2022-11-05T21:38:34.464Z,11.32
2022-11-05T21:41:02.915Z,10.80
2022-11-05T21:43:29.978Z,10.32
2022-11-05T21:46:01.182Z,11.57
2022-11-05T21:48:28.243Z,16.50
2022-11-05T21:51:13.692Z,17.83
2022-11-05T21:53:58.933Z,17.30
2022-11-05T21:56:45.878Z,13.88
2022-11-05T21:59:37.559Z,10.40
2022-11-05T22:02:08.450Z,13.57
2022-11-05T22:04:40.723Z,11.05
2022-11-05T22:07:09.481Z,13.13
2022-11-05T22:09:36.619Z,12.73
2022-11-05T22:12:03.713Z,11.52
2022-11-05T22:14:31.247Z,10.65
2022-11-05T22:16:58.574Z,10.27
2022-11-05T22:19:25.999Z,9.52
2022-11-05T22:21:52.886Z,10.88
2022-11-05T22:24:23.270Z,11.38
2022-11-05T22:26:50.159Z,10.27
2022-11-05T22:29:17.551Z,12.02
2022-11-05T22:31:45.138Z,9.52
2022-11-05T22:34:12.123Z,9.95
2022-11-05T22:36:39.481Z,9.80
2022-11-05T22:39:06.873Z,11.70
2022-11-05T22:41:34.451Z,9.90
2022-11-05T22:44:03.242Z,9.40
2022-11-05T22:46:30.681Z,9.25
2022-11-05T22:48:58.223Z,8.05
2022-11-05T22:51:27.683Z,8.55
2022-11-05T22:53:55.128Z,7.50
2022-11-05T22:56:24.180Z,8.68
2022-11-05T22:58:51.533Z,9.05
2022-11-05T23:01:20.308Z,8.75
2022-11-05T23:03:49.131Z,8.13
2022-11-05T23:06:42.710Z,9.60
2022-11-05T23:09:52.364Z,8.73
2022-11-05T23:12:28.551Z,11.90
2022-11-05T23:14:56.994Z,8.07
2022-11-05T23:17:43.384Z,8.43
2022-11-05T23:20:37.996Z,8.32
2022-11-05T23:23:28.042Z,11.90
2022-11-05T23:25:59.581Z,10.00
2022-11-05T23:28:26.605Z,10.05
2022-11-05T23:31:11.745Z,10.77
2022-11-05T23:33:38.520Z,11.25
2022-11-05T23:36:24.485Z,9.23
2022-11-05T23:38:51.171Z,9.93
2022-11-05T23:41:36.528Z,8.48
2022-11-05T23:44:30.210Z,9.63
2022-11-05T23:47:15.263Z,8.43
2022-11-05T23:49:41.985Z,7.82
2022-11-05T23:52:08.798Z,7.68
2022-11-05T23:54:35.427Z,8.20
2022-11-05T23:57:02.082Z,10.60
2022-11-05T23:59:28.897Z,12.25
